Time;durP1;ratioP1;P1;durP2;ratioP2;P2;SDS_P1;SDS_P2;PMS_P1;PMS_P2;Temp;Humidity;BMP_temperature;BMP_pressure;BME280_temperature;BME280_humidity;BME280_pressure;Samples;Min_cycle;Max_cycle;Signal;HPM_P1;HPM_P2
2022/08/12 00:44:58;;;;;;;3.08;1.83;;;;;;;;;;5081475;28;20051;-64
2022/08/12 00:47:24;;;;;;;6.60;2.38;;;;;;;;;;5087825;28;20056;-64
2022/08/12 00:49:50;;;;;;;3.13;1.75;;;;;;;;;;5089418;28;20485;-63
2022/08/12 00:52:17;;;;;;;6.53;2.40;;;;;;;;;;5086442;28;20032;-63
2022/08/12 00:54:47;;;;;;;2.03;1.67;;;;;;;;;;5092422;28;20032;-64
2022/08/12 00:57:18;;;;;;;3.63;1.90;;;;;;;;;;5076482;28;20578;-64
2022/08/12 00:59:45;;;;;;;4.25;1.95;;;;;;;;;;5090484;28;20110;-63
2022/08/12 01:02:14;;;;;;;3.80;2.20;;;;;;;;;;5086986;28;20071;-63
2022/08/12 01:12:57;;;;;;;10.25;1.95;;;;;;;;;;5087198;28;20453;-63
2022/08/12 01:15:25;;;;;;;2.22;1.70;;;;;;;;;;5090627;28;20407;-63
2022/08/12 01:17:51;;;;;;;4.78;2.30;;;;;;;;;;5092481;28;20012;-63
2022/08/12 01:20:24;;;;;;;6.80;2.13;;;;;;;;;;5082397;28;20064;-64
2022/08/12 01:22:50;;;;;;;;;;;;;;;;;;5077100;28;20039;-63
2022/08/12 01:25:18;;;;;;;4.65;2.53;;;;;;;;;;5085783;28;20006;-63
2022/08/12 01:27:44;;;;;;;6.90;2.03;;;;;;;;;;5092747;28;20024;-63
2022/08/12 01:30:13;;;;;;;4.70;2.53;;;;;;;;;;5091433;28;20028;-63
2022/08/12 01:32:40;;;;;;;6.18;2.00;;;;;;;;;;5090420;28;20047;-64
2022/08/12 01:35:08;;;;;;;3.97;2.00;;;;;;;;;;5091526;28;20025;-64
2022/08/12 01:37:36;;;;;;;3.33;2.03;;;;;;;;;;5092464;28;20395;-64
2022/08/12 01:40:03;;;;;;;5.03;2.00;;;;;;;;;;5089187;28;20016;-63
2022/08/12 01:42:39;;;;;;;6.07;2.28;;;;;;;;;;5091521;28;20036;-63
2022/08/12 01:45:05;;;;;;;7.43;2.28;;;;;;;;;;5089444;28;20040;-64
2022/08/12 01:47:48;;;;;;;5.50;2.30;;;;;;;;;;5088161;28;20056;-64
2022/08/12 01:50:30;;;;;;;5.97;2.63;;;;;;;;;;5085991;28;20028;-62
2022/08/12 01:53:05;;;;;;;4.25;2.30;;;;;;;;;;5085927;28;20028;-64
2022/08/12 01:55:33;;;;;;;4.20;2.28;;;;;;;;;;5076948;28;20017;-63
2022/08/12 01:58:19;;;;;;;5.63;2.13;;;;;;;;;;5074671;28;20032;-64
2022/08/12 02:00:51;;;;;;;4.18;2.30;;;;;;;;;;5086768;28;20486;-61
2022/08/12 02:12:05;;;;;;;5.15;2.10;;;;;;;;;;5082096;28;20094;-63
2022/08/12 02:14:37;;;;;;;2.80;2.15;;;;;;;;;;5090501;28;20536;-63
2022/08/12 02:17:22;;;;;;;4.47;2.53;;;;;;;;;;5089073;28;20463;-63
2022/08/12 02:19:59;;;;;;;4.95;2.20;;;;;;;;;;5087173;28;20043;-63
2022/08/12 02:22:27;;;;;;;5.05;2.40;;;;;;;;;;5091602;28;20545;-64
2022/08/12 02:24:57;;;;;;;4.95;2.10;;;;;;;;;;5082826;28;20480;-62
2022/08/12 02:27:26;;;;;;;5.00;2.10;;;;;;;;;;5086638;28;20119;-63
2022/08/12 02:29:52;;;;;;;4.97;2.22;;;;;;;;;;5086548;28;20025;-63
2022/08/12 02:32:19;;;;;;;4.07;2.40;;;;;;;;;;5085772;28;20021;-62
2022/08/12 02:34:45;;;;;;;3.72;2.25;;;;;;;;;;5083372;28;20089;-62
2022/08/12 02:37:14;;;;;;;3.70;2.50;;;;;;;;;;5082435;28;20032;-63
2022/08/12 02:39:40;;;;;;;10.35;3.65;;;;;;;;;;5083929;28;20480;-63
2022/08/12 02:42:09;;;;;;;4.90;2.63;;;;;;;;;;5090746;28;20028;-63
2022/08/12 02:44:38;;;;;;;4.40;2.58;;;;;;;;;;5089161;28;20499;-63
2022/08/12 02:47:05;;;;;;;4.40;2.20;;;;;;;;;;5088649;28;20028;-63
2022/08/12 02:49:34;;;;;;;4.72;2.30;;;;;;;;;;5088579;28;20428;-63
2022/08/12 02:52:00;;;;;;;7.10;2.75;;;;;;;;;;5083390;28;20028;-63
2022/08/12 02:54:27;;;;;;;5.40;2.78;;;;;;;;;;5085982;28;20020;-63
2022/08/12 02:56:53;;;;;;;5.90;2.38;;;;;;;;;;5079578;28;20044;-63
2022/08/12 02:59:21;;;;;;;7.00;2.63;;;;;;;;;;5085673;28;20502;-63
2022/08/12 03:01:48;;;;;;;5.50;2.65;;;;;;;;;;5075874;28;20491;-63
2022/08/12 03:04:25;;;;;;;5.88;2.85;;;;;;;;;;5089727;28;20032;-63
2022/08/12 03:06:57;;;;;;;3.97;2.38;;;;;;;;;;5087463;28;20039;-63
2022/08/12 03:09:24;;;;;;;5.20;1.95;;;;;;;;;;5085640;28;20036;-62
2022/08/12 03:11:51;;;;;;;4.70;2.17;;;;;;;;;;5083364;28;20051;-63
2022/08/12 03:14:17;;;;;;;5.60;2.85;;;;;;;;;;5084010;28;20035;-63
2022/08/12 03:16:49;;;;;;;5.03;2.28;;;;;;;;;;5091138;28;20031;-63
2022/08/12 03:19:18;;;;;;;3.22;2.22;;;;;;;;;;5081763;28;20029;-63
2022/08/12 03:21:45;;;;;;;4.50;2.17;;;;;;;;;;5071660;28;20511;-63
2022/08/12 03:24:12;;;;;;;4.90;2.65;;;;;;;;;;5082058;28;20215;-63
2022/08/12 03:26:39;;;;;;;5.88;2.60;;;;;;;;;;5087708;28;20035;-62
2022/08/12 03:29:06;;;;;;;5.68;2.33;;;;;;;;;;5083781;28;20024;-63
2022/08/12 03:31:32;;;;;;;4.35;2.55;;;;;;;;;;5089458;28;20205;-62
2022/08/12 03:34:10;;;;;;;6.30;2.50;;;;;;;;;;5087047;28;20024;-64
2022/08/12 03:36:38;;;;;;;6.60;2.78;;;;;;;;;;5090228;28;20020;-63
2022/08/12 03:41:58;;;;;;;3.80;2.30;;;;;;;;;;5083840;28;20403;-64
2022/08/12 04:01:04;;;;;;;3.80;2.70;;;;;;;;;;5084189;28;20044;-63
2022/08/12 04:06:17;;;;;;;3.47;2.30;;;;;;;;;;5084064;28;22384;-63
2022/08/12 04:08:43;;;;;;;3.70;2.58;;;;;;;;;;5082069;28;20499;-63
2022/08/12 04:14:04;;;;;;;7.50;2.38;;;;;;;;;;5079681;28;20061;-62
2022/08/12 04:16:30;;;;;;;3.90;2.70;;;;;;;;;;5081828;28;20032;-63
2022/08/12 04:18:56;;;;;;;3.65;2.15;;;;;;;;;;5092801;28;20028;-63
2022/08/12 04:21:22;;;;;;;10.93;2.67;;;;;;;;;;5084362;28;20034;-63
2022/08/12 04:23:48;;;;;;;6.70;2.90;;;;;;;;;;5093230;28;20032;-63
2022/08/12 04:26:15;;;;;;;4.53;2.72;;;;;;;;;;5077894;28;20031;-63
2022/08/12 04:28:42;;;;;;;4.13;2.47;;;;;;;;;;5086169;28;20020;-62
2022/08/12 04:31:08;;;;;;;6.47;2.47;;;;;;;;;;5090383;28;20024;-62
2022/08/12 04:33:34;;;;;;;4.90;2.92;;;;;;;;;;5083731;28;20052;-62
2022/08/12 04:36:00;;;;;;;5.50;2.67;;;;;;;;;;5088935;28;20028;-63
2022/08/12 04:38:27;;;;;;;3.65;2.40;;;;;;;;;;5092433;28;20016;-62
2022/08/12 04:40:53;;;;;;;9.18;2.17;;;;;;;;;;5087743;28;20020;-63
2022/08/12 04:43:19;;;;;;;5.18;2.92;;;;;;;;;;5091640;28;20144;-60
2022/08/12 04:45:48;;;;;;;5.35;2.58;;;;;;;;;;5083441;28;20040;-63
2022/08/12 04:48:14;;;;;;;7.43;2.30;;;;;;;;;;5090311;28;20024;-63
2022/08/12 04:50:40;;;;;;;4.78;2.13;;;;;;;;;;5088291;28;20077;-63
2022/08/12 04:53:07;;;;;;;3.78;2.70;;;;;;;;;;5091724;28;20031;-63
2022/08/12 04:55:33;;;;;;;4.20;2.88;;;;;;;;;;5090213;28;20107;-63
2022/08/12 04:58:00;;;;;;;4.30;2.58;;;;;;;;;;5091592;28;20726;-63
2022/08/12 05:00:26;;;;;;;4.93;2.80;;;;;;;;;;5089824;28;20040;-63
2022/08/12 05:02:52;;;;;;;6.40;2.80;;;;;;;;;;5087692;28;20062;-63
2022/08/12 05:05:22;;;;;;;3.88;2.38;;;;;;;;;;5092647;28;20032;-63
2022/08/12 05:07:49;;;;;;;4.80;2.40;;;;;;;;;;5088958;28;20565;-62
2022/08/12 05:10:16;;;;;;;7.68;2.78;;;;;;;;;;5080814;28;20093;-63
2022/08/12 05:12:43;;;;;;;6.72;2.58;;;;;;;;;;5083398;28;20046;-63
2022/08/12 05:15:12;;;;;;;4.75;2.67;;;;;;;;;;5086004;28;20393;-63
2022/08/12 05:17:39;;;;;;;5.75;2.75;;;;;;;;;;5079455;28;20032;-63
2022/08/12 05:20:06;;;;;;;6.53;2.75;;;;;;;;;;5085095;28;20472;-63
2022/08/12 05:22:31;;;;;;;6.78;2.78;;;;;;;;;;5085090;28;20031;-63
2022/08/12 05:24:57;;;;;;;7.72;3.22;;;;;;;;;;5090070;28;20036;-63
2022/08/12 05:27:24;;;;;;;4.80;3.08;;;;;;;;;;5087863;28;20032;-63
2022/08/12 05:29:50;;;;;;;6.35;3.28;;;;;;;;;;5091321;28;20032;-63
2022/08/12 05:32:19;;;;;;;6.05;2.85;;;;;;;;;;5077908;28;20040;-63
2022/08/12 05:34:45;;;;;;;4.78;2.90;;;;;;;;;;5084234;28;20106;-63
2022/08/12 05:37:11;;;;;;;6.70;2.85;;;;;;;;;;5089153;28;20069;-63
2022/08/12 05:39:37;;;;;;;5.20;2.78;;;;;;;;;;5084651;28;20032;-63
2022/08/12 05:42:03;;;;;;;8.80;3.33;;;;;;;;;;5086188;28;20032;-63
2022/08/12 05:44:29;;;;;;;6.93;2.78;;;;;;;;;;5091066;28;20102;-62
2022/08/12 05:46:55;;;;;;;4.55;2.95;;;;;;;;;;5089557;28;20032;-63
2022/08/12 05:49:21;;;;;;;8.20;3.10;;;;;;;;;;5091310;28;20035;-63
2022/08/12 05:51:47;;;;;;;5.25;2.80;;;;;;;;;;5083010;28;20044;-63
2022/08/12 05:54:15;;;;;;;4.68;2.72;;;;;;;;;;5086702;28;20054;-63
2022/08/12 05:56:41;;;;;;;6.28;3.03;;;;;;;;;;5091797;28;20121;-63
2022/08/12 05:59:09;;;;;;;4.47;2.30;;;;;;;;;;5091230;28;20464;-63
2022/08/12 06:01:36;;;;;;;5.60;2.78;;;;;;;;;;5082472;28;20028;-63
2022/08/12 06:04:02;;;;;;;7.38;2.80;;;;;;;;;;5083227;28;20100;-63
2022/08/12 06:06:29;;;;;;;10.00;2.53;;;;;;;;;;5087657;28;20059;-63
2022/08/12 06:08:55;;;;;;;7.75;2.53;;;;;;;;;;5076610;28;20111;-63
2022/08/12 06:11:24;;;;;;;4.85;2.28;;;;;;;;;;5090026;28;20035;-63
2022/08/12 06:13:51;;;;;;;6.13;2.30;;;;;;;;;;5090363;28;20116;-63
2022/08/12 06:16:19;;;;;;;6.18;2.70;;;;;;;;;;5089501;28;20028;-63
2022/08/12 06:18:45;;;;;;;7.20;2.70;;;;;;;;;;5092630;28;20075;-63
2022/08/12 06:21:12;;;;;;;6.70;2.35;;;;;;;;;;5086868;28;20036;-63
2022/08/12 06:23:38;;;;;;;5.95;2.28;;;;;;;;;;5078449;28;20414;-63
2022/08/12 06:26:10;;;;;;;5.68;2.28;;;;;;;;;;5087584;28;20017;-63
2022/08/12 06:28:36;;;;;;;4.78;2.20;;;;;;;;;;5082567;28;20032;-62
2022/08/12 06:31:02;;;;;;;7.03;1.88;;;;;;;;;;5081143;28;20112;-63
2022/08/12 06:33:28;;;;;;;5.25;2.58;;;;;;;;;;5090056;28;20028;-62
2022/08/12 06:35:55;;;;;;;5.40;1.73;;;;;;;;;;5086409;28;20102;-63
2022/08/12 06:38:22;;;;;;;4.07;2.38;;;;;;;;;;5092339;28;20059;-63
2022/08/12 06:43:34;;;;;;;7.60;2.10;;;;;;;;;;5083495;28;20047;-63
2022/08/12 06:46:00;;;;;;;8.68;1.80;;;;;;;;;;5080889;28;20030;-60
2022/08/12 06:48:28;;;;;;;3.72;1.90;;;;;;;;;;5081906;28;20021;-60
2022/08/12 06:50:55;;;;;;;3.95;1.42;;;;;;;;;;5071966;28;20036;-59
2022/08/12 06:53:22;;;;;;;3.90;2.45;;;;;;;;;;5083989;28;20127;-59
2022/08/12 06:55:48;;;;;;;4.72;2.08;;;;;;;;;;5087130;28;20039;-60
2022/08/12 06:58:15;;;;;;;7.35;1.77;;;;;;;;;;5076914;28;20394;-59
2022/08/12 07:00:45;;;;;;;3.92;1.60;;;;;;;;;;5079503;28;20107;-60
2022/08/12 07:03:16;;;;;;;4.00;1.25;;;;;;;;;;5085857;28;20035;-59
2022/08/12 07:05:42;;;;;;;5.00;1.77;;;;;;;;;;5071817;28;20024;-59
2022/08/12 07:08:08;;;;;;;2.97;1.48;;;;;;;;;;5080193;28;20027;-59
2022/08/12 07:10:38;;;;;;;6.13;1.70;;;;;;;;;;5084287;28;20028;-60
2022/08/12 07:13:05;;;;;;;2.63;1.42;;;;;;;;;;5085308;28;20051;-60
2022/08/12 07:15:31;;;;;;;2.42;1.25;;;;;;;;;;5083268;28;20567;-60
2022/08/12 07:17:59;;;;;;;5.60;1.42;;;;;;;;;;5086936;28;20024;-60
2022/08/12 07:20:29;;;;;;;6.32;1.27;;;;;;;;;;5087609;28;20020;-59
2022/08/12 07:22:58;;;;;;;4.65;1.25;;;;;;;;;;5089469;28;20032;-59
2022/08/12 07:25:30;;;;;;;8.00;1.25;;;;;;;;;;5089581;28;20032;-59
2022/08/12 07:28:00;;;;;;;3.17;1.30;;;;;;;;;;5087074;28;20078;-60
2022/08/12 07:30:26;;;;;;;4.60;1.38;;;;;;;;;;5084420;28;20033;-60
2022/08/12 07:32:53;;;;;;;4.85;1.20;;;;;;;;;;5084792;28;20530;-61
2022/08/12 07:35:19;;;;;;;3.35;1.33;;;;;;;;;;5089721;28;20047;-59
2022/08/12 07:37:46;;;;;;;3.55;1.10;;;;;;;;;;5087965;28;20025;-59
2022/08/12 07:40:12;;;;;;;4.75;1.17;;;;;;;;;;5084288;28;20039;-60
2022/08/12 07:42:39;;;;;;;4.03;1.00;;;;;;;;;;5082975;28;20473;-60
2022/08/12 07:45:06;;;;;;;2.05;0.73;;;;;;;;;;5089592;28;20024;-59
2022/08/12 07:47:33;;;;;;;2.90;0.95;;;;;;;;;;5089078;28;20020;-60
2022/08/12 07:50:00;;;;;;;3.58;0.90;;;;;;;;;;5083473;28;20096;-60
2022/08/12 07:52:26;;;;;;;4.18;1.17;;;;;;;;;;5086421;28;20035;-60
2022/08/12 07:54:52;;;;;;;2.60;0.82;;;;;;;;;;5074637;28;20070;-60
2022/08/12 07:57:19;;;;;;;2.30;1.00;;;;;;;;;;5090187;28;20056;-60
2022/08/12 07:59:45;;;;;;;2.83;0.80;;;;;;;;;;5080167;28;20073;-60
2022/08/12 08:02:11;;;;;;;6.68;1.42;;;;;;;;;;5088997;28;20093;-59
2022/08/12 08:04:56;;;;;;;3.30;0.85;;;;;;;;;;5088470;28;20042;-60
2022/08/12 08:07:23;;;;;;;4.13;1.15;;;;;;;;;;5084643;28;20074;-60
2022/08/12 08:09:49;;;;;;;1.75;0.77;;;;;;;;;;5086185;28;20036;-60
2022/08/12 08:14:59;;;;;;;1.40;0.88;;;;;;;;;;5083545;28;20082;-60
2022/08/12 08:17:26;;;;;;;2.13;1.10;;;;;;;;;;5081030;28;20027;-60
2022/08/12 08:19:52;;;;;;;4.40;0.70;;;;;;;;;;5081630;28;20383;-60
2022/08/12 08:22:23;;;;;;;4.00;0.70;;;;;;;;;;5079146;28;20110;-60
2022/08/12 08:24:56;;;;;;;4.57;0.75;;;;;;;;;;5081270;28;20099;-59
2022/08/12 08:27:23;;;;;;;4.43;1.08;;;;;;;;;;5078298;28;20456;-59
2022/08/12 08:29:49;;;;;;;3.25;0.90;;;;;;;;;;5077994;28;20380;-59
2022/08/12 08:32:15;;;;;;;4.05;0.65;;;;;;;;;;5080275;28;20436;-60
2022/08/12 08:34:44;;;;;;;2.83;0.80;;;;;;;;;;5081814;28;20055;-60
2022/08/12 08:37:13;;;;;;;2.70;0.70;;;;;;;;;;5089653;28;20028;-60
2022/08/12 08:39:39;;;;;;;2.17;0.73;;;;;;;;;;5088484;28;20020;-59
2022/08/12 08:44:49;;;;;;;2.10;0.57;;;;;;;;;;5083821;28;20131;-60
2022/08/12 08:47:15;;;;;;;2.72;0.60;;;;;;;;;;5082075;28;20032;-60
2022/08/12 08:49:41;;;;;;;1.35;0.65;;;;;;;;;;5086785;28;20047;-59
2022/08/12 08:52:08;;;;;;;1.75;0.50;;;;;;;;;;5081125;28;20085;-60
2022/08/12 08:54:36;;;;;;;1.40;0.45;;;;;;;;;;5077837;28;20475;-60
2022/08/12 08:57:03;;;;;;;1.35;0.60;;;;;;;;;;5083264;28;20415;-59
2022/08/12 08:59:29;;;;;;;1.80;0.60;;;;;;;;;;5071050;28;20040;-60
2022/08/12 09:01:55;;;;;;;4.97;0.50;;;;;;;;;;5085289;28;20637;-60
2022/08/12 09:04:23;;;;;;;1.30;0.50;;;;;;;;;;5087687;28;20475;-60
2022/08/12 09:06:57;;;;;;;6.43;0.88;;;;;;;;;;5090917;28;20058;-60
2022/08/12 09:09:23;;;;;;;3.17;0.77;;;;;;;;;;5089562;28;20107;-61
2022/08/12 09:14:34;;;;;;;3.75;0.55;;;;;;;;;;5088561;28;20086;-60
2022/08/12 09:17:00;;;;;;;4.10;0.40;;;;;;;;;;5089173;28;20025;-60
2022/08/12 09:19:26;;;;;;;2.05;0.70;;;;;;;;;;5084652;28;20028;-60
2022/08/12 09:21:52;;;;;;;4.55;0.85;;;;;;;;;;5081895;28;20112;-60
2022/08/12 09:24:18;;;;;;;1.05;0.70;;;;;;;;;;5079945;28;20032;-60
2022/08/12 09:26:47;;;;;;;5.20;1.00;;;;;;;;;;5080330;28;20105;-60
2022/08/12 09:29:20;;;;;;;2.00;0.80;;;;;;;;;;5084514;28;20039;-60
2022/08/12 09:31:46;;;;;;;5.22;0.75;;;;;;;;;;5090313;28;20066;-60
2022/08/12 09:34:13;;;;;;;1.05;0.55;;;;;;;;;;5090293;28;20691;-60
2022/08/12 09:36:40;;;;;;;1.20;0.52;;;;;;;;;;5090226;28;20020;-60
2022/08/12 09:39:06;;;;;;;3.88;0.88;;;;;;;;;;5081261;28;20483;-60
2022/08/12 09:41:42;;;;;;;1.60;0.68;;;;;;;;;;5080291;28;20507;-60
2022/08/12 09:46:53;;;;;;;4.82;0.70;;;;;;;;;;5075065;28;20399;-60
2022/08/12 09:49:20;;;;;;;6.70;0.80;;;;;;;;;;5093195;28;20027;-60
2022/08/12 09:51:47;;;;;;;3.28;0.90;;;;;;;;;;5092462;28;20377;-60
2022/08/12 09:54:16;;;;;;;4.38;0.70;;;;;;;;;;5084799;28;20384;-60
2022/08/12 09:56:42;;;;;;;1.65;0.60;;;;;;;;;;5089108;28;20416;-61
2022/08/12 09:59:08;;;;;;;2.97;0.70;;;;;;;;;;5091505;28;20361;-60
2022/08/12 10:01:37;;;;;;;6.25;1.00;;;;;;;;;;5078731;28;20031;-60
2022/08/12 10:04:09;;;;;;;1.45;0.70;;;;;;;;;;5092606;28;20077;-61
2022/08/12 10:06:35;;;;;;;9.50;1.00;;;;;;;;;;5081820;28;20472;-60
2022/08/12 10:09:01;;;;;;;4.22;0.85;;;;;;;;;;5092971;28;20028;-60
2022/08/12 10:14:12;;;;;;;4.53;0.75;;;;;;;;;;5083716;28;20505;-60
2022/08/12 10:16:42;;;;;;;6.10;1.00;;;;;;;;;;5072372;28;20046;-60
2022/08/12 10:19:09;;;;;;;1.85;0.60;;;;;;;;;;5081669;28;20016;-60
2022/08/12 10:21:40;;;;;;;4.18;0.70;;;;;;;;;;5090700;28;20472;-60
2022/08/12 10:24:09;;;;;;;1.40;0.63;;;;;;;;;;5091250;28;20028;-61
2022/08/12 10:29:38;;;;;;;3.25;0.77;;;;;;;;;;5081917;28;20074;-60
2022/08/12 10:32:08;;;;;;;2.53;0.47;;;;;;;;;;5086481;28;20024;-60
2022/08/12 10:34:34;;;;;;;3.67;0.60;;;;;;;;;;5092630;28;20048;-60
2022/08/12 10:37:02;;;;;;;2.63;0.95;;;;;;;;;;5092390;28;20052;-60
2022/08/12 10:39:33;;;;;;;1.73;0.47;;;;;;;;;;5092334;28;20028;-60
2022/08/12 10:44:45;;;;;;;5.28;0.93;;;;;;;;;;5092446;28;20476;-61
2022/08/12 10:47:11;;;;;;;2.20;0.70;;;;;;;;;;5090356;28;20051;-60
2022/08/12 10:49:37;;;;;;;2.15;0.70;;;;;;;;;;5082828;28;20650;-61
2022/08/12 10:52:04;;;;;;;4.55;0.70;;;;;;;;;;5079078;28;20028;-60
2022/08/12 10:54:30;;;;;;;1.25;0.77;;;;;;;;;;5086520;28;20050;-60
2022/08/12 10:56:59;;;;;;;2.90;0.80;;;;;;;;;;5083267;28;20104;-61
2022/08/12 10:59:25;;;;;;;2.55;0.75;;;;;;;;;;5071803;28;20020;-60
2022/08/12 11:01:51;;;;;;;2.22;0.75;;;;;;;;;;5080718;28;20539;-59
2022/08/12 11:04:17;;;;;;;3.30;0.60;;;;;;;;;;5071890;28;20040;-58
2022/08/12 11:06:47;;;;;;;2.10;0.80;;;;;;;;;;5072361;28;20099;-57
2022/08/12 11:09:16;;;;;;;0.77;0.50;;;;;;;;;;5075924;28;20020;-58
2022/08/12 11:11:42;;;;;;;1.38;0.75;;;;;;;;;;5084111;28;20050;-58
2022/08/12 11:14:08;;;;;;;2.40;0.60;;;;;;;;;;5091259;28;20043;-60
2022/08/12 11:16:34;;;;;;;1.45;0.50;;;;;;;;;;5091654;28;20467;-60
2022/08/12 11:19:00;;;;;;;1.45;0.70;;;;;;;;;;5091554;28;20161;-60
2022/08/12 11:21:26;;;;;;;5.47;0.85;;;;;;;;;;5081249;28;20037;-60
2022/08/12 11:23:52;;;;;;;1.52;0.70;;;;;;;;;;5082919;28;20054;-60
2022/08/12 11:26:18;;;;;;;2.90;0.93;;;;;;;;;;5089241;28;20483;-60
2022/08/12 11:28:44;;;;;;;2.95;0.90;;;;;;;;;;5088913;28;20034;-60
2022/08/12 11:31:10;;;;;;;5.97;0.57;;;;;;;;;;5084648;28;20392;-60
2022/08/12 11:33:36;;;;;;;3.63;0.57;;;;;;;;;;5091233;28;20032;-60
2022/08/12 11:36:06;;;;;;;3.50;0.73;;;;;;;;;;5091308;28;20081;-60
2022/08/12 11:38:31;;;;;;;3.13;0.90;;;;;;;;;;5091548;28;20031;-60
2022/08/12 11:40:57;;;;;;;3.85;1.13;;;;;;;;;;5087879;28;20028;-61
2022/08/12 11:43:23;;;;;;;1.83;0.65;;;;;;;;;;5088595;28;20069;-60
2022/08/12 11:45:50;;;;;;;8.95;0.80;;;;;;;;;;5084586;28;20035;-59
2022/08/12 11:48:15;;;;;;;5.00;0.70;;;;;;;;;;5083524;28;20032;-61
2022/08/12 11:50:45;;;;;;;8.57;0.88;;;;;;;;;;5082336;28;20039;-61
2022/08/12 11:53:11;;;;;;;1.83;0.85;;;;;;;;;;5088569;28;20032;-60
2022/08/12 11:55:37;;;;;;;1.50;0.55;;;;;;;;;;5085588;28;20020;-60
2022/08/12 11:58:03;;;;;;;4.50;1.00;;;;;;;;;;5090783;28;20032;-60
2022/08/12 12:00:29;;;;;;;1.55;0.70;;;;;;;;;;5089668;28;20123;-60
2022/08/12 12:02:55;;;;;;;6.65;1.10;;;;;;;;;;5080793;28;20111;-60
2022/08/12 12:05:21;;;;;;;4.70;0.70;;;;;;;;;;5086055;28;20028;-60
2022/08/12 12:07:47;;;;;;;1.92;0.70;;;;;;;;;;5090064;28;20484;-60
2022/08/12 12:10:14;;;;;;;1.13;0.40;;;;;;;;;;5088399;28;20105;-60
2022/08/12 12:12:41;;;;;;;3.00;0.70;;;;;;;;;;5090045;28;20123;-60
2022/08/12 12:15:08;;;;;;;3.75;0.50;;;;;;;;;;5086754;28;20388;-60
2022/08/12 12:17:35;;;;;;;4.38;0.65;;;;;;;;;;5086150;28;20849;-60
2022/08/12 12:20:02;;;;;;;1.73;0.60;;;;;;;;;;5086332;28;20392;-60
2022/08/12 12:22:28;;;;;;;1.55;0.50;;;;;;;;;;5087514;28;20097;-60
2022/08/12 12:24:54;;;;;;;1.27;0.57;;;;;;;;;;5087889;28;20036;-58
2022/08/12 12:27:20;;;;;;;3.63;0.60;;;;;;;;;;5084460;28;20040;-58
2022/08/12 12:29:46;;;;;;;4.13;0.77;;;;;;;;;;5074073;28;20028;-58
2022/08/12 12:32:13;;;;;;;1.58;0.50;;;;;;;;;;5077716;28;20037;-61
2022/08/12 12:34:39;;;;;;;3.03;0.70;;;;;;;;;;5091287;28;20062;-61
2022/08/12 12:37:05;;;;;;;5.15;0.60;;;;;;;;;;5091933;28;20641;-61
2022/08/12 12:39:31;;;;;;;1.48;0.55;;;;;;;;;;5088110;28;20059;-60
2022/08/12 12:41:57;;;;;;;3.75;0.60;;;;;;;;;;5092620;28;20031;-61
2022/08/12 12:44:23;;;;;;;5.78;0.68;;;;;;;;;;5092571;28;20032;-61
2022/08/12 12:46:49;;;;;;;3.17;0.85;;;;;;;;;;5085126;28;20020;-61
2022/08/12 12:49:15;;;;;;;2.70;0.70;;;;;;;;;;5091134;28;20028;-60
2022/08/12 12:51:41;;;;;;;9.82;0.90;;;;;;;;;;5091851;28;20024;-58
2022/08/12 12:54:09;;;;;;;3.85;0.63;;;;;;;;;;5090266;28;20070;-59
2022/08/12 12:56:36;;;;;;;2.38;0.90;;;;;;;;;;5089463;28;20491;-60
2022/08/12 12:59:04;;;;;;;0.88;0.57;;;;;;;;;;5088608;28;20495;-60
2022/08/12 13:01:32;;;;;;;2.55;0.63;;;;;;;;;;5091860;28;20099;-60
2022/08/12 13:03:58;;;;;;;7.15;0.80;;;;;;;;;;5083521;28;20035;-60
2022/08/12 13:06:28;;;;;;;2.63;0.70;;;;;;;;;;5083716;28;20089;-61
2022/08/12 13:08:54;;;;;;;2.35;0.68;;;;;;;;;;5091815;28;20152;-60
2022/08/12 13:11:20;;;;;;;3.45;1.10;;;;;;;;;;5092520;28;20448;-61
2022/08/12 13:13:51;;;;;;;1.70;0.70;;;;;;;;;;5083816;28;20035;-61
2022/08/12 13:16:19;;;;;;;3.38;0.60;;;;;;;;;;5093442;28;20027;-61
2022/08/12 13:18:46;;;;;;;3.20;1.00;;;;;;;;;;5078601;28;20380;-61
2022/08/12 13:21:16;;;;;;;2.38;0.70;;;;;;;;;;5092651;28;20449;-61
2022/08/12 13:23:44;;;;;;;2.58;0.60;;;;;;;;;;5090364;28;20039;-60
2022/08/12 13:26:10;;;;;;;3.53;0.65;;;;;;;;;;5088057;28;20036;-60
2022/08/12 13:28:36;;;;;;;2.08;0.75;;;;;;;;;;5092850;28;20027;-61
2022/08/12 13:31:02;;;;;;;2.25;0.60;;;;;;;;;;5081734;28;20081;-60
2022/08/12 13:33:29;;;;;;;2.00;0.40;;;;;;;;;;5091513;28;20035;-60
2022/08/12 13:35:59;;;;;;;2.15;0.68;;;;;;;;;;5079848;28;20133;-60
2022/08/12 13:38:39;;;;;;;3.22;0.70;;;;;;;;;;5093329;28;20051;-60
2022/08/12 13:41:06;;;;;;;2.63;0.55;;;;;;;;;;5088438;28;20047;-60
2022/08/12 13:43:32;;;;;;;8.77;0.50;;;;;;;;;;5089907;28;20372;-60
2022/08/12 13:45:58;;;;;;;5.35;0.75;;;;;;;;;;5086615;28;20032;-62
2022/08/12 13:48:24;;;;;;;2.63;0.70;;;;;;;;;;5085906;28;20437;-61
2022/08/12 13:50:51;;;;;;;3.53;0.73;;;;;;;;;;5091165;28;20032;-61
2022/08/12 13:53:18;;;;;;;5.90;0.70;;;;;;;;;;5090252;28;20111;-61
2022/08/12 13:55:46;;;;;;;2.13;0.60;;;;;;;;;;5088539;28;20077;-60
2022/08/12 13:58:15;;;;;;;2.20;0.60;;;;;;;;;;5089224;28;20421;-60
2022/08/12 14:00:46;;;;;;;5.72;0.70;;;;;;;;;;5085000;28;20024;-60
2022/08/12 14:03:15;;;;;;;2.80;0.68;;;;;;;;;;5087859;28;20024;-60
2022/08/12 14:05:41;;;;;;;1.50;0.60;;;;;;;;;;5081097;28;20076;-60
2022/08/12 14:08:13;;;;;;;4.07;0.82;;;;;;;;;;5086687;28;20050;-60
2022/08/12 14:10:42;;;;;;;2.15;0.60;;;;;;;;;;5083658;28;20024;-60
2022/08/12 14:13:13;;;;;;;1.48;0.60;;;;;;;;;;5087145;28;20040;-60
2022/08/12 14:15:47;;;;;;;1.48;0.70;;;;;;;;;;5077524;28;20646;-59
2022/08/12 14:18:14;;;;;;;6.47;1.17;;;;;;;;;;5088214;28;20103;-60
2022/08/12 14:20:41;;;;;;;3.75;0.80;;;;;;;;;;5085884;28;20755;-60
2022/08/12 14:23:07;;;;;;;2.13;0.65;;;;;;;;;;5080312;28;20028;-60
2022/08/12 14:25:33;;;;;;;7.00;1.00;;;;;;;;;;5078929;28;20401;-60
2022/08/12 14:28:10;;;;;;;3.55;0.80;;;;;;;;;;5081032;28;20028;-60
2022/08/12 14:30:46;;;;;;;0.93;0.70;;;;;;;;;;5083323;28;20032;-60
2022/08/12 14:33:14;;;;;;;6.38;1.10;;;;;;;;;;5077776;28;20032;-60
2022/08/12 14:35:40;;;;;;;0.65;0.43;;;;;;;;;;5086261;28;20103;-60
2022/08/12 14:38:18;;;;;;;1.80;0.60;;;;;;;;;;5090686;28;20352;-60
2022/08/12 14:40:44;;;;;;;5.30;0.88;;;;;;;;;;5084163;28;20036;-59
2022/08/12 14:43:12;;;;;;;2.53;0.70;;;;;;;;;;5088342;28;20035;-59
2022/08/12 14:45:38;;;;;;;1.75;0.65;;;;;;;;;;5091705;28;20035;-59
2022/08/12 14:48:05;;;;;;;3.60;0.70;;;;;;;;;;5081364;28;20468;-59
2022/08/12 14:50:31;;;;;;;1.20;0.70;;;;;;;;;;5090808;28;20028;-60
2022/08/12 14:52:57;;;;;;;3.08;0.82;;;;;;;;;;5089858;28;20024;-59
2022/08/12 14:55:23;;;;;;;1.30;0.60;;;;;;;;;;5072777;28;20029;-60
2022/08/12 14:57:53;;;;;;;1.95;0.73;;;;;;;;;;5087097;28;20043;-60
2022/08/12 15:03:08;;;;;;;2.13;1.10;;;;;;;;;;5078226;28;20123;-60
2022/08/12 15:05:37;;;;;;;3.35;0.68;;;;;;;;;;5090661;28;20035;-60
2022/08/12 15:08:09;;;;;;;1.75;0.70;;;;;;;;;;5081908;28;20034;-60
2022/08/12 15:10:36;;;;;;;2.67;0.65;;;;;;;;;;5087542;28;20089;-60
2022/08/12 15:13:05;;;;;;;2.90;0.70;;;;;;;;;;5091783;28;20058;-60
2022/08/12 15:15:31;;;;;;;2.42;0.60;;;;;;;;;;5083078;28;20028;-60
2022/08/12 15:18:00;;;;;;;1.48;0.95;;;;;;;;;;5080850;28;20491;-60
2022/08/12 15:20:27;;;;;;;1.00;0.70;;;;;;;;;;5079978;28;20028;-60
2022/08/12 15:22:54;;;;;;;2.47;0.60;;;;;;;;;;5083377;28;20106;-60
2022/08/12 15:25:20;;;;;;;3.40;0.80;;;;;;;;;;5089967;28;20079;-60
2022/08/12 15:27:48;;;;;;;1.50;0.50;;;;;;;;;;5091159;28;20113;-61
2022/08/12 15:30:16;;;;;;;0.88;0.50;;;;;;;;;;5085560;28;20031;-60
2022/08/12 15:32:42;;;;;;;3.58;0.65;;;;;;;;;;5084187;28;20679;-61
2022/08/12 15:35:10;;;;;;;2.70;0.50;;;;;;;;;;5089109;28;20108;-61
2022/08/12 15:37:36;;;;;;;1.77;0.77;;;;;;;;;;5083878;28;20024;-61
2022/08/12 15:40:02;;;;;;;1.67;0.60;;;;;;;;;;5089954;28;20026;-60
2022/08/12 15:42:28;;;;;;;2.60;0.40;;;;;;;;;;5083367;28;20032;-60
2022/08/12 15:44:55;;;;;;;5.32;0.70;;;;;;;;;;5085425;28;20031;-61
2022/08/12 15:47:21;;;;;;;4.22;0.63;;;;;;;;;;5086280;28;20192;-61
2022/08/12 15:49:47;;;;;;;4.15;0.50;;;;;;;;;;5085150;28;20065;-61
2022/08/12 15:52:13;;;;;;;0.88;0.52;;;;;;;;;;5083625;28;20039;-60
2022/08/12 15:54:40;;;;;;;0.77;0.52;;;;;;;;;;5080655;28;20035;-60
2022/08/12 15:57:07;;;;;;;2.63;0.68;;;;;;;;;;5088899;28;20136;-60
2022/08/12 15:59:34;;;;;;;1.73;0.70;;;;;;;;;;5085767;28;20078;-60
2022/08/12 16:02:00;;;;;;;0.82;0.73;;;;;;;;;;5089265;28;20032;-60
2022/08/12 16:04:26;;;;;;;1.30;0.50;;;;;;;;;;5082263;28;20032;-60
2022/08/12 16:06:52;;;;;;;2.42;0.68;;;;;;;;;;5084474;28;20074;-60
2022/08/12 16:09:21;;;;;;;1.13;0.60;;;;;;;;;;5089152;28;20036;-60
2022/08/12 16:11:47;;;;;;;3.33;0.80;;;;;;;;;;5090547;28;21836;-60
2022/08/12 16:14:14;;;;;;;2.38;0.93;;;;;;;;;;5084045;28;20032;-60
2022/08/12 16:16:40;;;;;;;1.45;0.88;;;;;;;;;;5079263;28;20840;-60
2022/08/12 16:19:06;;;;;;;1.30;0.63;;;;;;;;;;5081569;28;20028;-60
2022/08/12 16:21:33;;;;;;;2.85;0.63;;;;;;;;;;5093520;28;20060;-60
2022/08/12 16:24:01;;;;;;;1.88;0.80;;;;;;;;;;5093993;28;20039;-59
2022/08/12 16:26:33;;;;;;;1.42;0.80;;;;;;;;;;5093490;28;20023;-60
2022/08/12 16:29:00;;;;;;;1.30;0.90;;;;;;;;;;5093110;28;20031;-60
2022/08/12 16:31:26;;;;;;;3.90;0.98;;;;;;;;;;5084458;28;20043;-60
2022/08/12 16:33:52;;;;;;;4.25;0.80;;;;;;;;;;5089368;28;20036;-60
2022/08/12 16:36:18;;;;;;;2.13;0.60;;;;;;;;;;5089092;28;20427;-60